Impacts METAR Board INFO
IDs:

KSEA - Seattle-Tacoma Intl, WA, US

Updated at: 1438 UTC 22 Feb 2018
Potential Impact None Slight Moderate High
Time22/02Z 22/03Z 22/04Z 22/05Z 22/06Z 22/07Z 22/08Z 22/09Z 22/10Z 22/11Z 22/12Z 22/13Z 22/14Z
VIS 2 2 1.5 2.5 3 10 10 10 10 10 10
CIG 14 19 16 33 8 45 50 -- -- 15 15
CoverOVCOVCOVCOVCOVCBKNOVCSCTSCTBKNBKN
FltCatIFRIFRIFRIFRIFRVFRVFRVFRVFRMVFRMVFR
WX-SN BR-SN BR-SN BR-SN BR-SN BR------------
WDir1301401306004020350201020
WSpd 7 7 7 7 4 5 6 7 8 8 8
WGst -- -- -- -- -- -- -- -- -- -- --
Raw hourly METARs


KSEA 220353Z 13007KT 2SM -SN BR SCT008 BKN014 OVC025 M01/M02 A3017 RMK AO2 SLP228 P0001 T10061022
KSEA 220453Z 14007KT 2SM -SN BR SCT004 OVC019 M01/M02 A3016 RMK AO2 SLP226 P0002 T10061017
KSEA 220553Z COR 13007KT 1 1/2SM -SN BR SCT006 OVC016 M01/M02 A3016 RMK AO2 SLP226 P0003 60006 4/001 T10061017 10006 21011 56008
KSEA 220700Z 06007KT 2 1/2SM -SN BR SCT003 OVC033 00/M02 A3016 RMK AO2 P0000 T00001022
KSEA 220753Z VRB04KT 3SM -SN BR SCT003 BKN008 OVC038 M01/M02 A3017 RMK AO2 SLP225 P0000 T10061022 400111033
KSEA 220853Z 04005KT 10SM FEW023 BKN045 M01/M02 A3017 RMK AO2 SNE27 SLP227 P0000 60000 T10111022 53002
KSEA 220953Z 02006KT 10SM OVC050 M01/M02 A3017 RMK AO2 SLP228 T10111022
KSEA 221100Z 35007KT 10SM FEW013 SCT020 M02/M03 A3018 RMK AO2 T10171033
KSEA 221153Z 02008KT 10SM FEW013 SCT050 M03/M05 A3019 RMK AO2 SLP234 60000 70006 4/002 T10281050 10000 21028 53007
KSEA 221253Z 01008KT 10SM BKN015 M02/M05 A3020 RMK AO2 SLP238 T10221050
KSEA 221353Z 02008KT 10SM BKN015 M02/M04 A3021 RMK AO2 SLP243 T10221044